CheckWX is a tool to help pilots better visualize weather data.  It is not intended as a substitute for an official pre-flight weather briefing.

06:46:35 UTC

LTDA TAF
Hatay Airport
Hatay, Turkey
TAF LTDA 042240Z 0500/0509 23017KT 9999 FEW040

Jul-5@
00:00 UTC

Jul-5 @ 00:00 UTC

Jul-5@
09:00 UTC

Jul-5 @ 09:00 UTC

TAF LTDA 042240Z 0500/0509 23017KT 9999 FEW040
Wind
  • 230° at 17 KTS
Cloud Levels
  • Few at 4,000' AGL